sensor_id;sensor_type;location;lat;lon;timestamp;pressure;altitude;pressure_sealevel;temperature;humidity
36378;BME280;22402;42.746;23.606;2024-03-08T00:00:18;93463.66;;;4.66;100.00
36378;BME280;22402;42.746;23.606;2024-03-08T00:02:45;93468.00;;;4.65;100.00
36378;BME280;22402;42.746;23.606;2024-03-08T00:05:15;93466.38;;;4.64;100.00
36378;BME280;22402;42.746;23.606;2024-03-08T00:07:41;93468.09;;;4.64;100.00
36378;BME280;22402;42.746;23.606;2024-03-08T00:10:10;93466.38;;;4.64;100.00
36378;BME280;22402;42.746;23.606;2024-03-08T00:12:41;93466.38;;;4.64;100.00
36378;BME280;22402;42.746;23.606;2024-03-08T00:15:11;93466.38;;;4.64;100.00
36378;BME280;22402;42.746;23.606;2024-03-08T00:17:41;93469.03;;;4.63;100.00
36378;BME280;22402;42.746;23.606;2024-03-08T00:20:07;93463.06;;;4.62;100.00
36378;BME280;22402;42.746;23.606;2024-03-08T00:22:37;93462.44;;;4.59;100.00
36378;BME280;22402;42.746;23.606;2024-03-08T00:25:03;93463.38;;;4.57;100.00
36378;BME280;22402;42.746;23.606;2024-03-08T00:27:29;93463.50;;;4.56;100.00
36378;BME280;22402;42.746;23.606;2024-03-08T00:29:58;93450.66;;;4.54;100.00
36378;BME280;22402;42.746;23.606;2024-03-08T00:32:26;93459.97;;;4.57;100.00
36378;BME280;22402;42.746;23.606;2024-03-08T00:34:56;93453.97;;;4.56;100.00
36378;BME280;22402;42.746;23.606;2024-03-08T00:37:21;93443.66;;;4.56;100.00
36378;BME280;22402;42.746;23.606;2024-03-08T00:39:49;93442.22;;;4.52;100.00
36378;BME280;22402;42.746;23.606;2024-03-08T00:42:19;93440.91;;;4.47;100.00
36378;BME280;22402;42.746;23.606;2024-03-08T00:44:44;93439.22;;;4.46;100.00
36378;BME280;22402;42.746;23.606;2024-03-08T00:47:13;93434.28;;;4.43;100.00
36378;BME280;22402;42.746;23.606;2024-03-08T00:49:41;93438.13;;;4.37;100.00
36378;BME280;22402;42.746;23.606;2024-03-08T00:52:07;93433.69;;;4.39;100.00
36378;BME280;22402;42.746;23.606;2024-03-08T00:54:35;93435.44;;;4.39;100.00
36378;BME280;22402;42.746;23.606;2024-03-08T00:57:04;93423.47;;;4.38;100.00
36378;BME280;22402;42.746;23.606;2024-03-08T00:59:29;93422.63;;;4.37;100.00
36378;BME280;22402;42.746;23.606;2024-03-08T01:01:58;93424.31;;;4.38;100.00
36378;BME280;22402;42.746;23.606;2024-03-08T01:04:24;93415.81;;;4.36;100.00
36378;BME280;22402;42.746;23.606;2024-03-08T01:06:51;93412.66;;;4.32;100.00
36378;BME280;22402;42.746;23.606;2024-03-08T01:09:18;93416.16;;;4.31;100.00
36378;BME280;22402;42.746;23.606;2024-03-08T01:11:47;93406.75;;;4.30;100.00
36378;BME280;22402;42.746;23.606;2024-03-08T01:14:12;93408.66;;;4.28;100.00
36378;BME280;22402;42.746;23.606;2024-03-08T01:16:39;93407.19;;;4.24;100.00
36378;BME280;22402;42.746;23.606;2024-03-08T01:19:06;93407.41;;;4.21;100.00
36378;BME280;22402;42.746;23.606;2024-03-08T01:21:32;93398.03;;;4.20;100.00
36378;BME280;22402;42.746;23.606;2024-03-08T01:23:58;93407.53;;;4.20;100.00
36378;BME280;22402;42.746;23.606;2024-03-08T01:26:23;93399.16;;;4.16;100.00
36378;BME280;22402;42.746;23.606;2024-03-08T01:28:49;93402.69;;;4.15;100.00
36378;BME280;22402;42.746;23.606;2024-03-08T01:31:18;93394.31;;;4.11;100.00
36378;BME280;22402;42.746;23.606;2024-03-08T01:33:44;93386.00;;;4.08;100.00
36378;BME280;22402;42.746;23.606;2024-03-08T01:36:09;93393.81;;;4.06;100.00
36378;BME280;22402;42.746;23.606;2024-03-08T01:38:36;93378.69;;;4.02;100.00
36378;BME280;22402;42.746;23.606;2024-03-08T01:41:02;93377.56;;;3.93;100.00
36378;BME280;22402;42.746;23.606;2024-03-08T01:43:28;93379.41;;;3.91;100.00
36378;BME280;22402;42.746;23.606;2024-03-08T01:45:57;93383.53;;;3.94;100.00
36378;BME280;22402;42.746;23.606;2024-03-08T01:48:25;93376.00;;;3.91;100.00
36378;BME280;22402;42.746;23.606;2024-03-08T01:50:52;93383.75;;;3.91;100.00
36378;BME280;22402;42.746;23.606;2024-03-08T01:53:18;93381.69;;;3.96;100.00
36378;BME280;22402;42.746;23.606;2024-03-08T01:55:49;93387.88;;;3.93;100.00
36378;BME280;22402;42.746;23.606;2024-03-08T01:58:15;93383.75;;;3.91;100.00
36378;BME280;22402;42.746;23.606;2024-03-08T02:00:44;93382.19;;;3.88;100.00
36378;BME280;22402;42.746;23.606;2024-03-08T02:03:13;93384.78;;;3.88;100.00
36378;BME280;22402;42.746;23.606;2024-03-08T02:05:41;93392.41;;;3.89;100.00
36378;BME280;22402;42.746;23.606;2024-03-08T02:08:09;93388.09;;;3.90;100.00
36378;BME280;22402;42.746;23.606;2024-03-08T02:10:40;93388.91;;;3.91;100.00
36378;BME280;22402;42.746;23.606;2024-03-08T02:13:07;93393.13;;;3.92;100.00
36378;BME280;22402;42.746;23.606;2024-03-08T02:15:52;93385.38;;;3.92;100.00
36378;BME280;22402;42.746;23.606;2024-03-08T02:18:18;93387.66;;;3.96;100.00
36378;BME280;22402;42.746;23.606;2024-03-08T02:20:45;93380.63;;;3.98;100.00
36378;BME280;22402;42.746;23.606;2024-03-08T02:23:14;93381.25;;;4.02;100.00
36378;BME280;22402;42.746;23.606;2024-03-08T02:25:40;93391.44;;;4.03;100.00
36378;BME280;22402;42.746;23.606;2024-03-08T02:28:09;93392.19;;;4.05;100.00
36378;BME280;22402;42.746;23.606;2024-03-08T02:30:35;93391.22;;;4.06;100.00
36378;BME280;22402;42.746;23.606;2024-03-08T02:33:01;93392.88;;;4.07;100.00
36378;BME280;22402;42.746;23.606;2024-03-08T02:35:26;93391.16;;;4.08;100.00
36378;BME280;22402;42.746;23.606;2024-03-08T02:37:54;93390.19;;;4.09;100.00
36378;BME280;22402;42.746;23.606;2024-03-08T02:40:19;93395.38;;;4.09;100.00
36378;BME280;22402;42.746;23.606;2024-03-08T02:42:44;93394.41;;;4.10;100.00
36378;BME280;22402;42.746;23.606;2024-03-08T02:45:10;93398.16;;;4.06;100.00
36378;BME280;22402;42.746;23.606;2024-03-08T02:47:35;93405.69;;;4.09;100.00
36378;BME280;22402;42.746;23.606;2024-03-08T02:50:01;93401.34;;;4.09;100.00
36378;BME280;22402;42.746;23.606;2024-03-08T02:52:29;93409.09;;;4.09;100.00
36378;BME280;22402;42.746;23.606;2024-03-08T02:54:54;93406.41;;;4.11;100.00
36378;BME280;22402;42.746;23.606;2024-03-08T02:57:19;93399.50;;;4.11;100.00
36378;BME280;22402;42.746;23.606;2024-03-08T02:59:45;93402.69;;;4.15;100.00
36378;BME280;22402;42.746;23.606;2024-03-08T03:02:11;93406.81;;;4.18;100.00
36378;BME280;22402;42.746;23.606;2024-03-08T03:04:39;93405.75;;;4.20;100.00
36378;BME280;22402;42.746;23.606;2024-03-08T03:07:05;93411.63;;;4.22;100.00
36378;BME280;22402;42.746;23.606;2024-03-08T03:09:30;93417.63;;;4.23;100.00
36378;BME280;22402;42.746;23.606;2024-03-08T03:11:58;93418.25;;;4.26;100.00
36378;BME280;22402;42.746;23.606;2024-03-08T03:14:23;93423.19;;;4.29;100.00
36378;BME280;22402;42.746;23.606;2024-03-08T03:16:49;93424.81;;;4.30;100.00
36378;BME280;22402;42.746;23.606;2024-03-08T03:19:15;93422.03;;;4.33;100.00
36378;BME280;22402;42.746;23.606;2024-03-08T03:21:42;93434.03;;;4.34;100.00
36378;BME280;22402;42.746;23.606;2024-03-08T03:24:08;93437.31;;;4.37;100.00
36378;BME280;22402;42.746;23.606;2024-03-08T03:26:38;93431.91;;;4.40;100.00
36378;BME280;22402;42.746;23.606;2024-03-08T03:29:07;93433.59;;;4.41;100.00
36378;BME280;22402;42.746;23.606;2024-03-08T03:31:34;93424.19;;;4.40;100.00
36378;BME280;22402;42.746;23.606;2024-03-08T03:33:59;93431.91;;;4.40;100.00
36378;BME280;22402;42.746;23.606;2024-03-08T03:36:30;93438.75;;;4.41;100.00
36378;BME280;22402;42.746;23.606;2024-03-08T03:38:58;93440.59;;;4.39;100.00
36378;BME280;22402;42.746;23.606;2024-03-08T03:41:34;93424.53;;;4.35;100.00
36378;BME280;22402;42.746;23.606;2024-03-08T03:44:00;93433.38;;;4.31;100.00
36378;BME280;22402;42.746;23.606;2024-03-08T03:46:25;93431.66;;;4.31;100.00
36378;BME280;22402;42.746;23.606;2024-03-08T03:48:52;93432.56;;;4.30;100.00
36378;BME280;22402;42.746;23.606;2024-03-08T03:51:18;93437.63;;;4.32;100.00
36378;BME280;22402;42.746;23.606;2024-03-08T03:53:43;93440.09;;;4.33;100.00
36378;BME280;22402;42.746;23.606;2024-03-08T03:56:11;93447.84;;;4.33;100.00
36378;BME280;22402;42.746;23.606;2024-03-08T03:58:38;93445.16;;;4.35;100.00
36378;BME280;22402;42.746;23.606;2024-03-08T04:01:06;93439.06;;;4.36;100.00
36378;BME280;22402;42.746;23.606;2024-03-08T04:03:31;93447.63;;;4.37;100.00
36378;BME280;22402;42.746;23.606;2024-03-08T04:05:57;93448.44;;;4.37;100.00
36378;BME280;22402;42.746;23.606;2024-03-08T04:08:22;93447.63;;;4.37;100.00
36378;BME280;22402;42.746;23.606;2024-03-08T04:10:49;93459.84;;;4.34;100.00
36378;BME280;22402;42.746;23.606;2024-03-08T04:13:14;93459.84;;;4.34;100.00
36378;BME280;22402;42.746;23.606;2024-03-08T04:15:41;93462.50;;;4.33;100.00
36378;BME280;22402;42.746;23.606;2024-03-08T04:18:06;93461.78;;;4.31;100.00
36378;BME280;22402;42.746;23.606;2024-03-08T04:20:34;93463.66;;;4.29;100.00
36378;BME280;22402;42.746;23.606;2024-03-08T04:22:59;93466.47;;;4.26;100.00
36378;BME280;22402;42.746;23.606;2024-03-08T04:25:25;93473.47;;;4.24;100.00
36378;BME280;22402;42.746;23.606;2024-03-08T04:27:50;93471.41;;;4.16;100.00
36378;BME280;22402;42.746;23.606;2024-03-08T04:30:17;93475.13;;;4.12;100.00
36378;BME280;22402;42.746;23.606;2024-03-08T04:32:42;93470.19;;;4.09;100.00
36378;BME280;22402;42.746;23.606;2024-03-08T04:35:10;93478.88;;;4.08;100.00
36378;BME280;22402;42.746;23.606;2024-03-08T04:37:37;93480.72;;;4.06;100.00
36378;BME280;22402;42.746;23.606;2024-03-08T04:40:03;93476.78;;;4.00;100.00
36378;BME280;22402;42.746;23.606;2024-03-08T04:42:29;93474.63;;;3.94;100.00
36378;BME280;22402;42.746;23.606;2024-03-08T04:44:55;93473.28;;;3.88;100.00
36378;BME280;22402;42.746;23.606;2024-03-08T04:47:20;93480.31;;;3.86;100.00
36378;BME280;22402;42.746;23.606;2024-03-08T04:49:46;93486.72;;;3.81;100.00
36378;BME280;22402;42.746;23.606;2024-03-08T04:52:12;93488.88;;;3.74;100.00
36378;BME280;22402;42.746;23.606;2024-03-08T04:54:37;93489.19;;;3.70;100.00
36378;BME280;22402;42.746;23.606;2024-03-08T04:57:03;93490.00;;;3.70;100.00
36378;BME280;22402;42.746;23.606;2024-03-08T04:59:29;93491.03;;;3.68;100.00
36378;BME280;22402;42.746;23.606;2024-03-08T05:01:55;93494.75;;;3.63;100.00
36378;BME280;22402;42.746;23.606;2024-03-08T05:04:21;93497.94;;;3.67;100.00
36378;BME280;22402;42.746;23.606;2024-03-08T05:06:47;93491.84;;;3.68;100.00
36378;BME280;22402;42.746;23.606;2024-03-08T05:09:14;93501.97;;;3.71;100.00
36378;BME280;22402;42.746;23.606;2024-03-08T05:11:43;93500.13;;;3.73;100.00
36378;BME280;22402;42.746;23.606;2024-03-08T05:14:13;93500.00;;;3.75;100.00
36378;BME280;22402;42.746;23.606;2024-03-08T05:16:45;93506.50;;;3.80;100.00
36378;BME280;22402;42.746;23.606;2024-03-08T05:19:17;93503.84;;;3.82;100.00
36378;BME280;22402;42.746;23.606;2024-03-08T05:21:44;93514.03;;;3.83;100.00
36378;BME280;22402;42.746;23.606;2024-03-08T05:24:09;93513.84;;;3.86;100.00
36378;BME280;22402;42.746;23.606;2024-03-08T05:26:38;93514.03;;;3.83;100.00
36378;BME280;22402;42.746;23.606;2024-03-08T05:29:04;93518.28;;;3.84;100.00
36378;BME280;22402;42.746;23.606;2024-03-08T05:33:58;93513.13;;;3.84;100.00
36378;BME280;22402;42.746;23.606;2024-03-08T05:36:23;93526.34;;;3.93;100.00
36378;BME280;22402;42.746;23.606;2024-03-08T05:38:49;93523.31;;;3.86;100.00
36378;BME280;22402;42.746;23.606;2024-03-08T05:41:16;93521.56;;;3.86;100.00
36378;BME280;22402;42.746;23.606;2024-03-08T05:43:42;93532.75;;;3.87;100.00
36378;BME280;22402;42.746;23.606;2024-03-08T05:46:08;93536.44;;;3.83;100.00
36378;BME280;22402;42.746;23.606;2024-03-08T05:48:34;93538.38;;;3.79;100.00
36378;BME280;22402;42.746;23.606;2024-03-08T05:51:00;93533.97;;;3.81;100.00
36378;BME280;22402;42.746;23.606;2024-03-08T05:53:27;93542.53;;;3.82;100.00
36378;BME280;22402;42.746;23.606;2024-03-08T05:55:52;93542.53;;;3.82;100.00
36378;BME280;22402;42.746;23.606;2024-03-08T05:58:17;93552.94;;;3.80;100.00
36378;BME280;22402;42.746;23.606;2024-03-08T06:00:43;93558.41;;;3.76;100.00
36378;BME280;22402;42.746;23.606;2024-03-08T06:03:12;93555.91;;;3.74;100.00
36378;BME280;22402;42.746;23.606;2024-03-08T06:05:37;93560.38;;;3.72;100.00
36378;BME280;22402;42.746;23.606;2024-03-08T06:08:05;93561.59;;;3.79;100.00
36378;BME280;22402;42.746;23.606;2024-03-08T06:10:32;93564.50;;;3.87;100.00
36378;BME280;22402;42.746;23.606;2024-03-08T06:12:58;93565.75;;;3.95;100.00
36378;BME280;22402;42.746;23.606;2024-03-08T06:15:25;93570.50;;;4.01;100.00
36378;BME280;22402;42.746;23.606;2024-03-08T06:17:51;93562.13;;;4.10;100.00
36378;BME280;22402;42.746;23.606;2024-03-08T06:20:18;93570.72;;;4.23;100.00
36378;BME280;22402;42.746;23.606;2024-03-08T06:22:43;93568.47;;;4.31;100.00
36378;BME280;22402;42.746;23.606;2024-03-08T06:25:11;93568.75;;;4.40;100.00
36378;BME280;22402;42.746;23.606;2024-03-08T06:27:39;93566.16;;;4.52;100.00
36378;BME280;22402;42.746;23.606;2024-03-08T06:30:06;93575.66;;;4.65;100.00
36378;BME280;22402;42.746;23.606;2024-03-08T06:32:32;93585.75;;;4.80;100.00
36378;BME280;22402;42.746;23.606;2024-03-08T06:35:01;93584.88;;;4.93;100.00
36378;BME280;22402;42.746;23.606;2024-03-08T06:37:27;93586.72;;;5.03;100.00
36378;BME280;22402;42.746;23.606;2024-03-08T06:39:52;93590.50;;;5.11;100.00
36378;BME280;22402;42.746;23.606;2024-03-08T06:42:22;93593.59;;;5.16;100.00
36378;BME280;22402;42.746;23.606;2024-03-08T06:44:59;93588.72;;;5.24;100.00
36378;BME280;22402;42.746;23.606;2024-03-08T06:47:29;93590.75;;;5.32;100.00
36378;BME280;22402;42.746;23.606;2024-03-08T06:49:55;93596.13;;;5.41;100.00
36378;BME280;22402;42.746;23.606;2024-03-08T06:52:20;93595.22;;;5.54;100.00
36378;BME280;22402;42.746;23.606;2024-03-08T06:54:47;93601.97;;;5.67;100.00
36378;BME280;22402;42.746;23.606;2024-03-08T06:57:12;93600.84;;;5.83;100.00
36378;BME280;22402;42.746;23.606;2024-03-08T06:59:40;93592.84;;;5.99;100.00
36378;BME280;22402;42.746;23.606;2024-03-08T07:02:06;93600.28;;;6.14;100.00
36378;BME280;22402;42.746;23.606;2024-03-08T07:04:34;93599.03;;;6.31;100.00
36378;BME280;22402;42.746;23.606;2024-03-08T07:07:04;93604.84;;;6.46;100.00
36378;BME280;22402;42.746;23.606;2024-03-08T07:09:29;93607.22;;;6.60;100.00
36378;BME280;22402;42.746;23.606;2024-03-08T07:11:54;93606.38;;;6.71;100.00
36378;BME280;22402;42.746;23.606;2024-03-08T07:14:23;93608.25;;;6.80;100.00
36378;BME280;22402;42.746;23.606;2024-03-08T07:16:50;93608.63;;;6.87;100.00
36378;BME280;22402;42.746;23.606;2024-03-08T07:19:16;93603.06;;;6.92;100.00
36378;BME280;22402;42.746;23.606;2024-03-08T07:21:45;93605.81;;;6.90;99.55
36378;BME280;22402;42.746;23.606;2024-03-08T07:24:11;93606.97;;;6.86;99.57
36378;BME280;22402;42.746;23.606;2024-03-08T07:26:45;93611.31;;;6.85;99.85
36378;BME280;22402;42.746;23.606;2024-03-08T07:29:15;93613.56;;;6.90;100.00
36378;BME280;22402;42.746;23.606;2024-03-08T07:31:40;93606.72;;;7.00;100.00
36378;BME280;22402;42.746;23.606;2024-03-08T07:34:32;93614.25;;;7.26;100.00
36378;BME280;22402;42.746;23.606;2024-03-08T07:36:59;93612.63;;;7.57;100.00
36378;BME280;22402;42.746;23.606;2024-03-08T07:39:26;93613.22;;;7.93;98.68
36378;BME280;22402;42.746;23.606;2024-03-08T07:41:51;93613.78;;;8.29;98.01
36378;BME280;22402;42.746;23.606;2024-03-08T07:44:20;93615.38;;;8.62;95.17
36378;BME280;22402;42.746;23.606;2024-03-08T07:46:45;93609.50;;;8.90;94.22
36378;BME280;22402;42.746;23.606;2024-03-08T07:49:11;93612.59;;;9.15;92.76
36378;BME280;22402;42.746;23.606;2024-03-08T07:51:37;93613.63;;;9.33;91.66
36378;BME280;22402;42.746;23.606;2024-03-08T07:54:03;93604.06;;;9.44;90.49
36378;BME280;22402;42.746;23.606;2024-03-08T07:56:34;93612.16;;;9.50;89.60
36378;BME280;22402;42.746;23.606;2024-03-08T07:59:02;93606.03;;;9.61;89.19
36378;BME280;22402;42.746;23.606;2024-03-08T08:01:29;93612.91;;;9.81;88.79
36378;BME280;22402;42.746;23.606;2024-03-08T08:03:56;93607.56;;;9.93;87.42
36378;BME280;22402;42.746;23.606;2024-03-08T08:06:22;93602.66;;;9.99;87.62
36378;BME280;22402;42.746;23.606;2024-03-08T08:08:47;93606.31;;;10.55;87.96
36378;BME280;22402;42.746;23.606;2024-03-08T08:11:13;93593.69;;;12.08;83.93
36378;BME280;22402;42.746;23.606;2024-03-08T08:13:41;93595.38;;;14.06;74.35
36378;BME280;22402;42.746;23.606;2024-03-08T08:16:09;93594.25;;;15.94;67.28
36378;BME280;22402;42.746;23.606;2024-03-08T08:18:36;93577.75;;;17.81;61.09
36378;BME280;22402;42.746;23.606;2024-03-08T08:21:05;93580.00;;;19.34;55.23
36378;BME280;22402;42.746;23.606;2024-03-08T08:23:33;93577.81;;;19.79;53.28
36378;BME280;22402;42.746;23.606;2024-03-08T08:25:59;93576.81;;;19.46;53.35
36378;BME280;22402;42.746;23.606;2024-03-08T08:28:25;93585.28;;;18.78;54.53
36378;BME280;22402;42.746;23.606;2024-03-08T08:30:50;93571.09;;;18.00;53.89
36378;BME280;22402;42.746;23.606;2024-03-08T08:33:16;93569.78;;;17.15;52.79
36378;BME280;22402;42.746;23.606;2024-03-08T08:35:41;93584.31;;;16.12;54.92
36378;BME280;22402;42.746;23.606;2024-03-08T08:38:08;93577.31;;;15.18;58.89
36378;BME280;22402;42.746;23.606;2024-03-08T08:40:34;93581.50;;;14.39;60.89
36378;BME280;22402;42.746;23.606;2024-03-08T08:43:01;93586.16;;;13.70;60.90
36378;BME280;22402;42.746;23.606;2024-03-08T08:45:32;93574.31;;;13.15;64.80
36378;BME280;22402;42.746;23.606;2024-03-08T08:47:58;93581.25;;;12.72;67.93
36378;BME280;22402;42.746;23.606;2024-03-08T08:50:26;93591.09;;;12.34;69.81
36378;BME280;22402;42.746;23.606;2024-03-08T08:52:54;93584.47;;;12.04;72.48
36378;BME280;22402;42.746;23.606;2024-03-08T08:55:19;93592.22;;;11.78;74.44
36378;BME280;22402;42.746;23.606;2024-03-08T08:57:52;93588.50;;;11.53;76.55
36378;BME280;22402;42.746;23.606;2024-03-08T09:00:19;93589.72;;;11.31;77.24
36378;BME280;22402;42.746;23.606;2024-03-08T09:02:48;93589.97;;;11.10;78.15
36378;BME280;22402;42.746;23.606;2024-03-08T09:05:16;93591.13;;;10.88;78.82
36378;BME280;22402;42.746;23.606;2024-03-08T09:07:45;93585.31;;;10.57;77.74
36378;BME280;22402;42.746;23.606;2024-03-08T09:10:13;93588.94;;;10.26;78.70
36378;BME280;22402;42.746;23.606;2024-03-08T09:12:41;93592.34;;;9.98;79.38
36378;BME280;22402;42.746;23.606;2024-03-08T09:15:08;93586.72;;;9.73;81.08
36378;BME280;22402;42.746;23.606;2024-03-08T09:17:36;93592.59;;;9.56;82.84
36378;BME280;22402;42.746;23.606;2024-03-08T09:20:06;93589.81;;;9.48;84.39
36378;BME280;22402;42.746;23.606;2024-03-08T09:22:32;93591.06;;;9.44;84.76
36378;BME280;22402;42.746;23.606;2024-03-08T09:24:57;93585.84;;;9.44;85.21
36378;BME280;22402;42.746;23.606;2024-03-08T09:27:23;93585.44;;;9.48;84.99
36378;BME280;22402;42.746;23.606;2024-03-08T09:29:48;93593.56;;;9.55;84.71
36378;BME280;22402;42.746;23.606;2024-03-08T09:32:17;93589.16;;;9.65;85.53
36378;BME280;22402;42.746;23.606;2024-03-08T09:34:42;93594.09;;;9.78;84.11
36378;BME280;22402;42.746;23.606;2024-03-08T09:37:08;93587.97;;;9.89;83.39
36378;BME280;22402;42.746;23.606;2024-03-08T09:39:34;93592.78;;;10.03;82.64
36378;BME280;22402;42.746;23.606;2024-03-08T09:42:02;93588.50;;;10.21;81.78
36378;BME280;22402;42.746;23.606;2024-03-08T09:44:31;93583.41;;;10.49;81.32
36378;BME280;22402;42.746;23.606;2024-03-08T09:46:58;93594.31;;;10.82;81.45
36378;BME280;22402;42.746;23.606;2024-03-08T09:49:26;93583.88;;;11.19;79.76
36378;BME280;22402;42.746;23.606;2024-03-08T09:51:54;93591.91;;;11.63;79.21
36378;BME280;22402;42.746;23.606;2024-03-08T09:54:21;93587.91;;;12.04;76.70
36378;BME280;22402;42.746;23.606;2024-03-08T09:56:52;93594.75;;;12.41;74.58
36378;BME280;22402;42.746;23.606;2024-03-08T09:59:20;93588.72;;;12.67;71.96
36378;BME280;22402;42.746;23.606;2024-03-08T10:01:45;93583.59;;;12.83;70.81
36378;BME280;22402;42.746;23.606;2024-03-08T10:04:13;93592.03;;;12.95;69.73
36378;BME280;22402;42.746;23.606;2024-03-08T10:06:39;93579.00;;;13.03;67.50
36378;BME280;22402;42.746;23.606;2024-03-08T10:09:05;93583.28;;;13.12;65.85
36378;BME280;22402;42.746;23.606;2024-03-08T10:11:33;93592.31;;;13.18;64.37
36378;BME280;22402;42.746;23.606;2024-03-08T10:14:00;93575.03;;;13.25;64.59
36378;BME280;22402;42.746;23.606;2024-03-08T10:16:29;93585.50;;;13.25;64.01
36378;BME280;22402;42.746;23.606;2024-03-08T10:18:58;93587.56;;;13.21;64.14
36378;BME280;22402;42.746;23.606;2024-03-08T10:21:23;93584.16;;;13.21;64.52
36378;BME280;22402;42.746;23.606;2024-03-08T10:23:50;93581.84;;;13.18;65.56
36378;BME280;22402;42.746;23.606;2024-03-08T10:26:16;93590.34;;;13.20;65.28
36378;BME280;22402;42.746;23.606;2024-03-08T10:28:47;93582.56;;;13.28;64.66
36378;BME280;22402;42.746;23.606;2024-03-08T10:31:14;93577.41;;;13.44;65.16
36378;BME280;22402;42.746;23.606;2024-03-08T10:33:42;93574.84;;;13.69;65.08
36378;BME280;22402;42.746;23.606;2024-03-08T10:36:11;93574.75;;;14.11;64.82
36378;BME280;22402;42.746;23.606;2024-03-08T10:38:38;93571.94;;;14.95;61.67
36378;BME280;22402;42.746;23.606;2024-03-08T10:41:08;93561.09;;;15.54;60.46
36378;BME280;22402;42.746;23.606;2024-03-08T10:48:55;93561.19;;;16.69;56.70
36378;BME280;22402;42.746;23.606;2024-03-08T10:51:24;93560.75;;;16.80;57.31
36378;BME280;22402;42.746;23.606;2024-03-08T10:53:52;93560.13;;;16.78;56.26
36378;BME280;22402;42.746;23.606;2024-03-08T10:56:17;93562.88;;;16.61;58.47
36378;BME280;22402;42.746;23.606;2024-03-08T10:58:43;93558.22;;;16.26;57.71
36378;BME280;22402;42.746;23.606;2024-03-08T11:01:11;93558.00;;;15.81;59.58
36378;BME280;22402;42.746;23.606;2024-03-08T11:06:06;93549.66;;;14.91;61.79
36378;BME280;22402;42.746;23.606;2024-03-08T11:08:33;93550.69;;;14.49;62.68
36378;BME280;22402;42.746;23.606;2024-03-08T11:11:01;93542.47;;;14.11;64.06
36378;BME280;22402;42.746;23.606;2024-03-08T11:13:33;93546.38;;;13.82;63.47
36378;BME280;22402;42.746;23.606;2024-03-08T11:15:59;93546.97;;;13.52;64.05
36378;BME280;22402;42.746;23.606;2024-03-08T11:18:26;93550.00;;;13.31;65.91
36378;BME280;22402;42.746;23.606;2024-03-08T11:20:54;93549.41;;;13.11;65.58
36378;BME280;22402;42.746;23.606;2024-03-08T11:23:22;93542.06;;;12.80;62.65
36378;BME280;22402;42.746;23.606;2024-03-08T11:25:48;93541.25;;;12.53;64.70
36378;BME280;22402;42.746;23.606;2024-03-08T11:28:20;93549.56;;;12.31;64.53
36378;BME280;22402;42.746;23.606;2024-03-08T11:33:24;93538.19;;;11.78;65.60
36378;BME280;22402;42.746;23.606;2024-03-08T11:35:50;93534.28;;;11.64;66.78
36378;BME280;22402;42.746;23.606;2024-03-08T11:38:16;93533.38;;;11.56;68.59
36378;BME280;22402;42.746;23.606;2024-03-08T11:40:42;93531.06;;;11.53;69.78
36378;BME280;22402;42.746;23.606;2024-03-08T11:43:08;93530.25;;;11.52;71.07
36378;BME280;22402;42.746;23.606;2024-03-08T11:45:34;93525.03;;;11.52;71.33
36378;BME280;22402;42.746;23.606;2024-03-08T11:48:04;93526.81;;;11.52;70.69
36378;BME280;22402;42.746;23.606;2024-03-08T11:50:30;93523.13;;;11.45;68.79
36378;BME280;22402;42.746;23.606;2024-03-08T11:53:05;93527.13;;;11.21;67.08
36378;BME280;22402;42.746;23.606;2024-03-08T11:55:32;93521.06;;;11.03;67.93
36378;BME280;22402;42.746;23.606;2024-03-08T11:58:05;93528.34;;;10.99;68.38
36378;BME280;22402;42.746;23.606;2024-03-08T12:00:33;93518.13;;;11.15;67.83
36378;BME280;22402;42.746;23.606;2024-03-08T12:03:07;93518.22;;;11.41;67.52
36378;BME280;22402;42.746;23.606;2024-03-08T12:05:33;93531.34;;;11.50;66.50
36378;BME280;22402;42.746;23.606;2024-03-08T12:08:00;93530.84;;;11.64;67.23
36378;BME280;22402;42.746;23.606;2024-03-08T12:10:28;93524.56;;;11.75;65.79
36378;BME280;22402;42.746;23.606;2024-03-08T12:12:54;93523.75;;;11.74;66.43
36378;BME280;22402;42.746;23.606;2024-03-08T12:15:23;93526.00;;;11.69;67.11
36378;BME280;22402;42.746;23.606;2024-03-08T12:17:53;93531.97;;;11.61;68.01
36378;BME280;22402;42.746;23.606;2024-03-08T12:20:24;93536.06;;;11.46;68.17
36378;BME280;22402;42.746;23.606;2024-03-08T12:22:55;93526.03;;;11.24;69.90
36378;BME280;22402;42.746;23.606;2024-03-08T12:25:35;93530.25;;;11.07;71.52
36378;BME280;22402;42.746;23.606;2024-03-08T12:28:14;93527.66;;;10.97;72.64
36378;BME280;22402;42.746;23.606;2024-03-08T12:30:48;93527.28;;;10.92;72.25
36378;BME280;22402;42.746;23.606;2024-03-08T12:33:14;93528.97;;;10.83;68.84
36378;BME280;22402;42.746;23.606;2024-03-08T12:35:40;93520.81;;;10.68;68.24
36378;BME280;22402;42.746;23.606;2024-03-08T12:38:06;93523.75;;;10.46;67.36
36378;BME280;22402;42.746;23.606;2024-03-08T12:40:33;93525.56;;;10.16;68.80
36378;BME280;22402;42.746;23.606;2024-03-08T12:43:05;93517.38;;;9.92;70.92
36378;BME280;22402;42.746;23.606;2024-03-08T12:45:31;93521.09;;;9.70;71.19
36378;BME280;22402;42.746;23.606;2024-03-08T12:47:58;93517.66;;;9.50;72.04
36378;BME280;22402;42.746;23.606;2024-03-08T12:50:24;93518.84;;;9.26;72.74
36378;BME280;22402;42.746;23.606;2024-03-08T12:52:50;93518.13;;;9.05;73.33
36378;BME280;22402;42.746;23.606;2024-03-08T12:55:16;93520.03;;;9.03;74.26
36378;BME280;22402;42.746;23.606;2024-03-08T12:57:43;93509.34;;;8.96;72.86
36378;BME280;22402;42.746;23.606;2024-03-08T13:00:09;93507.66;;;8.85;74.84
36378;BME280;22402;42.746;23.606;2024-03-08T13:02:39;93512.31;;;8.82;75.09